sensor_id;sensor_type;location;lat;lon;timestamp;P1;durP1;ratioP1;P2;durP2;ratioP2
57395;SDS011;43222;52.912;6.940;2023-07-31T00:00:50;6.88;;;2.30;;
57395;SDS011;43222;52.912;6.940;2023-07-31T00:03:16;7.63;;;2.80;;
57395;SDS011;43222;52.912;6.940;2023-07-31T00:05:42;8.13;;;2.50;;
57395;SDS011;43222;52.912;6.940;2023-07-31T00:08:09;6.22;;;2.60;;
57395;SDS011;43222;52.912;6.940;2023-07-31T00:10:35;6.93;;;2.42;;
57395;SDS011;43222;52.912;6.940;2023-07-31T00:13:01;7.35;;;2.30;;
57395;SDS011;43222;52.912;6.940;2023-07-31T00:15:27;7.40;;;2.42;;
57395;SDS011;43222;52.912;6.940;2023-07-31T00:17:53;8.43;;;2.78;;
57395;SDS011;43222;52.912;6.940;2023-07-31T00:20:19;5.82;;;2.25;;
57395;SDS011;43222;52.912;6.940;2023-07-31T00:22:45;7.03;;;2.65;;
57395;SDS011;43222;52.912;6.940;2023-07-31T00:25:11;6.38;;;2.55;;
57395;SDS011;43222;52.912;6.940;2023-07-31T00:27:38;7.57;;;2.40;;
57395;SDS011;43222;52.912;6.940;2023-07-31T00:30:04;7.75;;;3.00;;
57395;SDS011;43222;52.912;6.940;2023-07-31T00:32:30;5.85;;;2.38;;
57395;SDS011;43222;52.912;6.940;2023-07-31T00:34:56;7.07;;;2.47;;
57395;SDS011;43222;52.912;6.940;2023-07-31T00:37:22;7.45;;;2.50;;
57395;SDS011;43222;52.912;6.940;2023-07-31T00:39:48;6.45;;;2.58;;
57395;SDS011;43222;52.912;6.940;2023-07-31T00:42:14;6.35;;;2.40;;
57395;SDS011;43222;52.912;6.940;2023-07-31T00:44:40;8.88;;;2.55;;
57395;SDS011;43222;52.912;6.940;2023-07-31T00:47:06;5.95;;;2.53;;
57395;SDS011;43222;52.912;6.940;2023-07-31T00:49:32;5.20;;;2.65;;
57395;SDS011;43222;52.912;6.940;2023-07-31T00:51:59;5.70;;;2.72;;
57395;SDS011;43222;52.912;6.940;2023-07-31T00:54:25;6.10;;;2.60;;
57395;SDS011;43222;52.912;6.940;2023-07-31T00:56:52;6.60;;;2.58;;
57395;SDS011;43222;52.912;6.940;2023-07-31T00:59:18;5.20;;;2.35;;
57395;SDS011;43222;52.912;6.940;2023-07-31T01:01:44;5.65;;;2.80;;
57395;SDS011;43222;52.912;6.940;2023-07-31T01:04:11;4.78;;;2.10;;
57395;SDS011;43222;52.912;6.940;2023-07-31T01:11:45;5.63;;;2.58;;
57395;SDS011;43222;52.912;6.940;2023-07-31T01:14:12;6.50;;;2.50;;
57395;SDS011;43222;52.912;6.940;2023-07-31T01:16:38;4.97;;;2.17;;
57395;SDS011;43222;52.912;6.940;2023-07-31T01:19:05;8.80;;;2.50;;
57395;SDS011;43222;52.912;6.940;2023-07-31T01:26:36;5.50;;;2.40;;
57395;SDS011;43222;52.912;6.940;2023-07-31T01:29:10;5.70;;;2.15;;
57395;SDS011;43222;52.912;6.940;2023-07-31T01:31:38;6.07;;;2.50;;
57395;SDS011;43222;52.912;6.940;2023-07-31T01:34:05;5.20;;;2.08;;
57395;SDS011;43222;52.912;6.940;2023-07-31T01:36:31;4.10;;;1.67;;
57395;SDS011;43222;52.912;6.940;2023-07-31T01:38:58;4.63;;;1.80;;
57395;SDS011;43222;52.912;6.940;2023-07-31T01:41:25;4.57;;;1.50;;
57395;SDS011;43222;52.912;6.940;2023-07-31T01:43:51;6.00;;;1.77;;
57395;SDS011;43222;52.912;6.940;2023-07-31T01:46:17;4.05;;;1.63;;
57395;SDS011;43222;52.912;6.940;2023-07-31T01:48:43;4.32;;;1.67;;
57395;SDS011;43222;52.912;6.940;2023-07-31T01:51:09;3.42;;;1.38;;
57395;SDS011;43222;52.912;6.940;2023-07-31T01:53:35;3.88;;;1.40;;
57395;SDS011;43222;52.912;6.940;2023-07-31T01:56:01;5.47;;;1.70;;
57395;SDS011;43222;52.912;6.940;2023-07-31T01:58:27;3.45;;;1.27;;
57395;SDS011;43222;52.912;6.940;2023-07-31T02:00:53;4.65;;;1.30;;
57395;SDS011;43222;52.912;6.940;2023-07-31T02:03:19;3.60;;;1.17;;
57395;SDS011;43222;52.912;6.940;2023-07-31T02:05:46;3.47;;;1.35;;
57395;SDS011;43222;52.912;6.940;2023-07-31T02:08:12;4.18;;;1.40;;
57395;SDS011;43222;52.912;6.940;2023-07-31T02:10:38;3.47;;;1.23;;
57395;SDS011;43222;52.912;6.940;2023-07-31T02:13:04;3.65;;;1.27;;
57395;SDS011;43222;52.912;6.940;2023-07-31T02:15:30;3.33;;;1.17;;
57395;SDS011;43222;52.912;6.940;2023-07-31T02:17:56;4.43;;;1.20;;
57395;SDS011;43222;52.912;6.940;2023-07-31T02:20:22;4.97;;;1.27;;
57395;SDS011;43222;52.912;6.940;2023-07-31T02:22:49;3.90;;;1.10;;
57395;SDS011;43222;52.912;6.940;2023-07-31T02:25:15;3.85;;;1.25;;
57395;SDS011;43222;52.912;6.940;2023-07-31T02:27:41;5.63;;;1.48;;
57395;SDS011;43222;52.912;6.940;2023-07-31T02:30:07;4.85;;;1.48;;
57395;SDS011;43222;52.912;6.940;2023-07-31T02:32:33;3.30;;;1.10;;
57395;SDS011;43222;52.912;6.940;2023-07-31T02:34:59;2.65;;;1.13;;
57395;SDS011;43222;52.912;6.940;2023-07-31T02:37:25;3.22;;;1.15;;
57395;SDS011;43222;52.912;6.940;2023-07-31T02:39:53;3.20;;;0.93;;
57395;SDS011;43222;52.912;6.940;2023-07-31T02:42:19;4.32;;;1.20;;
57395;SDS011;43222;52.912;6.940;2023-07-31T02:44:45;2.67;;;0.80;;
57395;SDS011;43222;52.912;6.940;2023-07-31T02:47:11;2.10;;;0.85;;
57395;SDS011;43222;52.912;6.940;2023-07-31T02:49:37;4.15;;;1.20;;
57395;SDS011;43222;52.912;6.940;2023-07-31T02:52:04;3.63;;;1.17;;
57395;SDS011;43222;52.912;6.940;2023-07-31T02:54:30;2.17;;;0.85;;
57395;SDS011;43222;52.912;6.940;2023-07-31T02:56:56;2.53;;;1.05;;
57395;SDS011;43222;52.912;6.940;2023-07-31T02:59:22;3.60;;;0.90;;
57395;SDS011;43222;52.912;6.940;2023-07-31T03:01:50;3.15;;;1.00;;
57395;SDS011;43222;52.912;6.940;2023-07-31T03:04:16;1.67;;;0.77;;
57395;SDS011;43222;52.912;6.940;2023-07-31T03:06:42;2.83;;;0.82;;
57395;SDS011;43222;52.912;6.940;2023-07-31T03:09:08;2.78;;;0.90;;
57395;SDS011;43222;52.912;6.940;2023-07-31T03:11:34;2.65;;;1.20;;
57395;SDS011;43222;52.912;6.940;2023-07-31T03:14:00;2.42;;;0.80;;
57395;SDS011;43222;52.912;6.940;2023-07-31T03:16:26;1.90;;;0.80;;
57395;SDS011;43222;52.912;6.940;2023-07-31T03:18:53;3.30;;;1.05;;
57395;SDS011;43222;52.912;6.940;2023-07-31T03:21:19;2.05;;;0.90;;
57395;SDS011;43222;52.912;6.940;2023-07-31T03:23:45;2.63;;;0.90;;
57395;SDS011;43222;52.912;6.940;2023-07-31T03:26:11;3.63;;;0.90;;
57395;SDS011;43222;52.912;6.940;2023-07-31T03:28:38;3.05;;;0.95;;
57395;SDS011;43222;52.912;6.940;2023-07-31T03:31:04;2.95;;;0.90;;
57395;SDS011;43222;52.912;6.940;2023-07-31T03:33:30;2.10;;;0.90;;
57395;SDS011;43222;52.912;6.940;2023-07-31T03:35:56;3.83;;;0.98;;
57395;SDS011;43222;52.912;6.940;2023-07-31T03:38:22;3.35;;;1.13;;
57395;SDS011;43222;52.912;6.940;2023-07-31T03:40:49;2.58;;;1.05;;
57395;SDS011;43222;52.912;6.940;2023-07-31T03:43:15;4.07;;;1.30;;
57395;SDS011;43222;52.912;6.940;2023-07-31T03:45:41;3.38;;;1.70;;
57395;SDS011;43222;52.912;6.940;2023-07-31T03:48:07;4.20;;;1.92;;
57395;SDS011;43222;52.912;6.940;2023-07-31T03:50:33;4.20;;;1.67;;
57395;SDS011;43222;52.912;6.940;2023-07-31T03:52:59;3.70;;;1.75;;
57395;SDS011;43222;52.912;6.940;2023-07-31T03:55:25;4.82;;;2.20;;
57395;SDS011;43222;52.912;6.940;2023-07-31T03:57:52;4.95;;;1.85;;
57395;SDS011;43222;52.912;6.940;2023-07-31T04:00:18;4.30;;;1.92;;
57395;SDS011;43222;52.912;6.940;2023-07-31T04:02:44;5.35;;;2.08;;
57395;SDS011;43222;52.912;6.940;2023-07-31T04:05:10;3.75;;;1.60;;
57395;SDS011;43222;52.912;6.940;2023-07-31T04:07:36;4.32;;;1.80;;
57395;SDS011;43222;52.912;6.940;2023-07-31T04:10:02;6.15;;;1.98;;
57395;SDS011;43222;52.912;6.940;2023-07-31T04:12:29;4.20;;;2.08;;
57395;SDS011;43222;52.912;6.940;2023-07-31T04:14:55;3.80;;;1.52;;
57395;SDS011;43222;52.912;6.940;2023-07-31T04:17:21;4.68;;;2.00;;
57395;SDS011;43222;52.912;6.940;2023-07-31T04:19:47;5.45;;;1.90;;
57395;SDS011;43222;52.912;6.940;2023-07-31T04:22:13;5.60;;;1.90;;
57395;SDS011;43222;52.912;6.940;2023-07-31T04:24:39;3.88;;;1.58;;
57395;SDS011;43222;52.912;6.940;2023-07-31T04:27:05;4.18;;;1.42;;
57395;SDS011;43222;52.912;6.940;2023-07-31T04:29:31;3.40;;;1.50;;
57395;SDS011;43222;52.912;6.940;2023-07-31T04:31:57;7.20;;;1.40;;
57395;SDS011;43222;52.912;6.940;2023-07-31T04:34:23;4.82;;;1.30;;
57395;SDS011;43222;52.912;6.940;2023-07-31T04:36:49;3.63;;;1.35;;
57395;SDS011;43222;52.912;6.940;2023-07-31T04:39:15;3.08;;;1.00;;
57395;SDS011;43222;52.912;6.940;2023-07-31T04:41:41;5.18;;;1.25;;
57395;SDS011;43222;52.912;6.940;2023-07-31T04:44:07;3.08;;;1.00;;
57395;SDS011;43222;52.912;6.940;2023-07-31T04:46:36;2.50;;;0.80;;
57395;SDS011;43222;52.912;6.940;2023-07-31T04:49:02;2.22;;;0.70;;
57395;SDS011;43222;52.912;6.940;2023-07-31T04:51:28;2.65;;;0.80;;
57395;SDS011;43222;52.912;6.940;2023-07-31T04:53:55;3.03;;;0.70;;
57395;SDS011;43222;52.912;6.940;2023-07-31T04:56:21;3.25;;;0.73;;
57395;SDS011;43222;52.912;6.940;2023-07-31T04:58:47;1.85;;;0.70;;
57395;SDS011;43222;52.912;6.940;2023-07-31T05:01:13;2.95;;;0.90;;
57395;SDS011;43222;52.912;6.940;2023-07-31T05:03:39;4.82;;;0.93;;
57395;SDS011;43222;52.912;6.940;2023-07-31T05:06:06;2.83;;;0.90;;
57395;SDS011;43222;52.912;6.940;2023-07-31T05:08:32;3.42;;;0.80;;
57395;SDS011;43222;52.912;6.940;2023-07-31T05:10:58;2.33;;;0.75;;
57395;SDS011;43222;52.912;6.940;2023-07-31T05:13:24;2.80;;;0.70;;
57395;SDS011;43222;52.912;6.940;2023-07-31T05:15:50;4.18;;;1.10;;
57395;SDS011;43222;52.912;6.940;2023-07-31T05:18:16;5.28;;;1.20;;
57395;SDS011;43222;52.912;6.940;2023-07-31T05:20:42;5.57;;;1.90;;
57395;SDS011;43222;52.912;6.940;2023-07-31T05:23:11;6.97;;;2.53;;
57395;SDS011;43222;52.912;6.940;2023-07-31T05:25:37;7.57;;;2.17;;
57395;SDS011;43222;52.912;6.940;2023-07-31T05:28:03;9.27;;;3.22;;
57395;SDS011;43222;52.912;6.940;2023-07-31T05:30:30;6.75;;;3.03;;
57395;SDS011;43222;52.912;6.940;2023-07-31T05:32:56;8.05;;;2.80;;
57395;SDS011;43222;52.912;6.940;2023-07-31T05:35:22;10.88;;;4.00;;
57395;SDS011;43222;52.912;6.940;2023-07-31T05:37:48;11.55;;;4.15;;
57395;SDS011;43222;52.912;6.940;2023-07-31T05:40:14;9.98;;;3.90;;
57395;SDS011;43222;52.912;6.940;2023-07-31T05:42:40;14.88;;;5.20;;
57395;SDS011;43222;52.912;6.940;2023-07-31T05:45:07;17.67;;;5.75;;
57395;SDS011;43222;52.912;6.940;2023-07-31T05:47:33;17.75;;;5.75;;
57395;SDS011;43222;52.912;6.940;2023-07-31T05:49:59;16.42;;;5.72;;
57395;SDS011;43222;52.912;6.940;2023-07-31T05:52:25;24.10;;;7.45;;
57395;SDS011;43222;52.912;6.940;2023-07-31T05:54:51;24.67;;;6.45;;
57395;SDS011;43222;52.912;6.940;2023-07-31T05:57:17;20.58;;;7.55;;
57395;SDS011;43222;52.912;6.940;2023-07-31T05:59:44;22.00;;;7.53;;
57395;SDS011;43222;52.912;6.940;2023-07-31T06:02:10;24.52;;;7.80;;
57395;SDS011;43222;52.912;6.940;2023-07-31T06:04:36;22.80;;;7.43;;
57395;SDS011;43222;52.912;6.940;2023-07-31T06:07:02;24.02;;;8.02;;
57395;SDS011;43222;52.912;6.940;2023-07-31T06:09:28;25.25;;;8.57;;
57395;SDS011;43222;52.912;6.940;2023-07-31T06:11:55;23.27;;;7.57;;
57395;SDS011;43222;52.912;6.940;2023-07-31T06:14:21;20.38;;;7.38;;
57395;SDS011;43222;52.912;6.940;2023-07-31T06:16:47;18.60;;;7.40;;
57395;SDS011;43222;52.912;6.940;2023-07-31T06:19:13;26.55;;;8.52;;
57395;SDS011;43222;52.912;6.940;2023-07-31T06:21:39;25.83;;;8.43;;
57395;SDS011;43222;52.912;6.940;2023-07-31T06:24:07;19.48;;;7.15;;
57395;SDS011;43222;52.912;6.940;2023-07-31T06:26:33;22.45;;;8.25;;
57395;SDS011;43222;52.912;6.940;2023-07-31T06:28:59;26.08;;;8.55;;
57395;SDS011;43222;52.912;6.940;2023-07-31T06:31:25;24.73;;;9.15;;
57395;SDS011;43222;52.912;6.940;2023-07-31T06:33:52;24.48;;;8.18;;
57395;SDS011;43222;52.912;6.940;2023-07-31T06:36:18;26.80;;;9.10;;
57395;SDS011;43222;52.912;6.940;2023-07-31T06:38:44;21.65;;;8.45;;
57395;SDS011;43222;52.912;6.940;2023-07-31T06:41:10;25.42;;;8.40;;
57395;SDS011;43222;52.912;6.940;2023-07-31T06:43:36;24.75;;;9.15;;
57395;SDS011;43222;52.912;6.940;2023-07-31T06:46:06;26.25;;;9.40;;
57395;SDS011;43222;52.912;6.940;2023-07-31T06:48:33;22.83;;;8.57;;
57395;SDS011;43222;52.912;6.940;2023-07-31T06:51:00;25.02;;;9.07;;
57395;SDS011;43222;52.912;6.940;2023-07-31T06:53:26;21.73;;;9.05;;
57395;SDS011;43222;52.912;6.940;2023-07-31T06:55:52;25.58;;;9.05;;
57395;SDS011;43222;52.912;6.940;2023-07-31T06:58:18;25.02;;;9.82;;
57395;SDS011;43222;52.912;6.940;2023-07-31T07:00:44;22.48;;;10.00;;
57395;SDS011;43222;52.912;6.940;2023-07-31T07:03:10;24.55;;;9.45;;
57395;SDS011;43222;52.912;6.940;2023-07-31T07:05:36;24.10;;;9.23;;
57395;SDS011;43222;52.912;6.940;2023-07-31T07:08:02;27.40;;;10.55;;
57395;SDS011;43222;52.912;6.940;2023-07-31T07:10:28;27.75;;;9.98;;
57395;SDS011;43222;52.912;6.940;2023-07-31T07:12:54;27.45;;;10.70;;
57395;SDS011;43222;52.912;6.940;2023-07-31T07:15:21;23.95;;;9.95;;
57395;SDS011;43222;52.912;6.940;2023-07-31T07:17:47;26.10;;;10.68;;
57395;SDS011;43222;52.912;6.940;2023-07-31T07:20:13;30.02;;;10.05;;
57395;SDS011;43222;52.912;6.940;2023-07-31T07:22:39;23.17;;;9.57;;
57395;SDS011;43222;52.912;6.940;2023-07-31T07:25:08;24.60;;;9.43;;
57395;SDS011;43222;52.912;6.940;2023-07-31T07:27:34;24.67;;;9.63;;
57395;SDS011;43222;52.912;6.940;2023-07-31T07:30:00;19.95;;;7.80;;
57395;SDS011;43222;52.912;6.940;2023-07-31T07:32:26;20.95;;;7.80;;
57395;SDS011;43222;52.912;6.940;2023-07-31T07:34:53;15.68;;;8.18;;
57395;SDS011;43222;52.912;6.940;2023-07-31T07:37:19;19.13;;;7.32;;
57395;SDS011;43222;52.912;6.940;2023-07-31T07:39:45;20.23;;;7.88;;
57395;SDS011;43222;52.912;6.940;2023-07-31T07:42:11;14.32;;;6.82;;
57395;SDS011;43222;52.912;6.940;2023-07-31T07:44:37;15.45;;;6.55;;
57395;SDS011;43222;52.912;6.940;2023-07-31T07:47:03;13.35;;;6.30;;
57395;SDS011;43222;52.912;6.940;2023-07-31T07:49:32;14.77;;;6.18;;
57395;SDS011;43222;52.912;6.940;2023-07-31T07:51:59;18.02;;;5.85;;
57395;SDS011;43222;52.912;6.940;2023-07-31T07:54:25;11.85;;;5.80;;
57395;SDS011;43222;52.912;6.940;2023-07-31T07:56:51;10.70;;;5.00;;
57395;SDS011;43222;52.912;6.940;2023-07-31T07:59:17;12.45;;;5.47;;
57395;SDS011;43222;52.912;6.940;2023-07-31T08:01:43;13.95;;;5.40;;
57395;SDS011;43222;52.912;6.940;2023-07-31T08:04:09;14.80;;;5.65;;
57395;SDS011;43222;52.912;6.940;2023-07-31T08:06:35;14.38;;;5.25;;
57395;SDS011;43222;52.912;6.940;2023-07-31T08:09:02;12.50;;;5.63;;
57395;SDS011;43222;52.912;6.940;2023-07-31T08:11:34;12.35;;;4.85;;
57395;SDS011;43222;52.912;6.940;2023-07-31T08:14:00;9.82;;;4.75;;
57395;SDS011;43222;52.912;6.940;2023-07-31T08:16:26;11.75;;;4.72;;
57395;SDS011;43222;52.912;6.940;2023-07-31T08:18:52;13.77;;;4.82;;
57395;SDS011;43222;52.912;6.940;2023-07-31T08:21:19;12.05;;;4.78;;
57395;SDS011;43222;52.912;6.940;2023-07-31T08:23:45;11.48;;;5.13;;
57395;SDS011;43222;52.912;6.940;2023-07-31T08:26:15;11.32;;;4.93;;
57395;SDS011;43222;52.912;6.940;2023-07-31T08:28:41;12.02;;;4.60;;
57395;SDS011;43222;52.912;6.940;2023-07-31T08:31:07;8.88;;;4.10;;
57395;SDS011;43222;52.912;6.940;2023-07-31T08:33:33;11.13;;;4.70;;
57395;SDS011;43222;52.912;6.940;2023-07-31T08:35:59;8.75;;;4.18;;
57395;SDS011;43222;52.912;6.940;2023-07-31T08:38:26;8.85;;;4.22;;
57395;SDS011;43222;52.912;6.940;2023-07-31T08:40:54;9.07;;;4.38;;
57395;SDS011;43222;52.912;6.940;2023-07-31T08:43:20;8.57;;;3.80;;
57395;SDS011;43222;52.912;6.940;2023-07-31T08:45:48;12.00;;;4.05;;
57395;SDS011;43222;52.912;6.940;2023-07-31T08:48:15;7.28;;;3.60;;
57395;SDS011;43222;52.912;6.940;2023-07-31T08:50:41;7.38;;;3.38;;
57395;SDS011;43222;52.912;6.940;2023-07-31T08:53:08;8.70;;;3.50;;
57395;SDS011;43222;52.912;6.940;2023-07-31T08:55:34;7.28;;;3.30;;
57395;SDS011;43222;52.912;6.940;2023-07-31T08:58:00;7.55;;;3.40;;
57395;SDS011;43222;52.912;6.940;2023-07-31T09:00:29;5.20;;;2.80;;
57395;SDS011;43222;52.912;6.940;2023-07-31T09:02:57;7.68;;;2.88;;
57395;SDS011;43222;52.912;6.940;2023-07-31T09:05:26;7.25;;;3.17;;
57395;SDS011;43222;52.912;6.940;2023-07-31T09:07:54;7.53;;;3.17;;
57395;SDS011;43222;52.912;6.940;2023-07-31T09:10:21;6.95;;;2.92;;
57395;SDS011;43222;52.912;6.940;2023-07-31T09:12:47;7.55;;;3.13;;
57395;SDS011;43222;52.912;6.940;2023-07-31T09:15:14;6.93;;;2.97;;
57395;SDS011;43222;52.912;6.940;2023-07-31T09:17:40;6.57;;;2.60;;
57395;SDS011;43222;52.912;6.940;2023-07-31T09:20:16;7.55;;;2.60;;
57395;SDS011;43222;52.912;6.940;2023-07-31T09:22:43;5.15;;;2.30;;
57395;SDS011;43222;52.912;6.940;2023-07-31T09:25:19;5.07;;;2.20;;
57395;SDS011;43222;52.912;6.940;2023-07-31T09:27:50;6.85;;;2.30;;
57395;SDS011;43222;52.912;6.940;2023-07-31T09:30:16;5.75;;;1.80;;
57395;SDS011;43222;52.912;6.940;2023-07-31T09:32:43;5.60;;;1.90;;
57395;SDS011;43222;52.912;6.940;2023-07-31T09:35:20;4.32;;;1.63;;
57395;SDS011;43222;52.912;6.940;2023-07-31T09:37:50;2.97;;;1.40;;
57395;SDS011;43222;52.912;6.940;2023-07-31T09:40:25;4.57;;;1.60;;
57395;SDS011;43222;52.912;6.940;2023-07-31T09:42:52;3.50;;;1.20;;
57395;SDS011;43222;52.912;6.940;2023-07-31T09:45:18;3.50;;;1.23;;
57395;SDS011;43222;52.912;6.940;2023-07-31T09:47:48;4.13;;;0.90;;
57395;SDS011;43222;52.912;6.940;2023-07-31T09:50:14;3.20;;;1.00;;
57395;SDS011;43222;52.912;6.940;2023-07-31T09:52:43;2.80;;;0.90;;
57395;SDS011;43222;52.912;6.940;2023-07-31T09:55:09;3.08;;;1.00;;
57395;SDS011;43222;52.912;6.940;2023-07-31T09:57:40;2.03;;;0.82;;
57395;SDS011;43222;52.912;6.940;2023-07-31T10:00:08;2.95;;;0.80;;
57395;SDS011;43222;52.912;6.940;2023-07-31T10:02:34;2.95;;;0.90;;
57395;SDS011;43222;52.912;6.940;2023-07-31T10:05:02;1.90;;;0.82;;
57395;SDS011;43222;52.912;6.940;2023-07-31T10:07:28;2.20;;;0.80;;
57395;SDS011;43222;52.912;6.940;2023-07-31T10:09:57;2.08;;;0.75;;
57395;SDS011;43222;52.912;6.940;2023-07-31T10:12:24;2.47;;;0.90;;
57395;SDS011;43222;52.912;6.940;2023-07-31T10:14:53;2.50;;;0.75;;
57395;SDS011;43222;52.912;6.940;2023-07-31T10:17:20;2.45;;;0.80;;
57395;SDS011;43222;52.912;6.940;2023-07-31T10:19:47;1.65;;;0.73;;
57395;SDS011;43222;52.912;6.940;2023-07-31T10:22:14;3.42;;;0.80;;
57395;SDS011;43222;52.912;6.940;2023-07-31T10:24:41;1.90;;;0.70;;
57395;SDS011;43222;52.912;6.940;2023-07-31T10:27:09;1.48;;;0.63;;
57395;SDS011;43222;52.912;6.940;2023-07-31T10:29:36;2.60;;;0.80;;
57395;SDS011;43222;52.912;6.940;2023-07-31T10:32:02;2.25;;;0.77;;
57395;SDS011;43222;52.912;6.940;2023-07-31T10:34:33;1.73;;;0.60;;
57395;SDS011;43222;52.912;6.940;2023-07-31T10:39:44;2.28;;;0.80;;
57395;SDS011;43222;52.912;6.940;2023-07-31T10:42:20;2.85;;;0.95;;
57395;SDS011;43222;52.912;6.940;2023-07-31T10:44:54;3.22;;;1.10;;
57395;SDS011;43222;52.912;6.940;2023-07-31T10:47:21;2.20;;;0.90;;
57395;SDS011;43222;52.912;6.940;2023-07-31T10:49:47;2.65;;;0.98;;
57395;SDS011;43222;52.912;6.940;2023-07-31T10:52:16;2.42;;;1.10;;
57395;SDS011;43222;52.912;6.940;2023-07-31T10:54:47;1.90;;;0.95;;
57395;SDS011;43222;52.912;6.940;2023-07-31T10:57:23;2.60;;;1.10;;
57395;SDS011;43222;52.912;6.940;2023-07-31T10:59:50;3.28;;;1.05;;
57395;SDS011;43222;52.912;6.940;2023-07-31T11:02:26;2.42;;;1.10;;
57395;SDS011;43222;52.912;6.940;2023-07-31T11:05:10;1.95;;;0.88;;
57395;SDS011;43222;52.912;6.940;2023-07-31T11:07:46;2.78;;;0.88;;
57395;SDS011;43222;52.912;6.940;2023-07-31T11:10:15;1.95;;;0.90;;
57395;SDS011;43222;52.912;6.940;2023-07-31T11:12:41;2.47;;;1.00;;
57395;SDS011;43222;52.912;6.940;2023-07-31T11:15:07;2.80;;;1.20;;
57395;SDS011;43222;52.912;6.940;2023-07-31T11:17:38;3.30;;;1.30;;
57395;SDS011;43222;52.912;6.940;2023-07-31T11:20:04;2.35;;;0.98;;
57395;SDS011;43222;52.912;6.940;2023-07-31T11:22:30;5.07;;;1.33;;
57395;SDS011;43222;52.912;6.940;2023-07-31T11:24:56;2.20;;;1.00;;
57395;SDS011;43222;52.912;6.940;2023-07-31T11:27:27;2.50;;;1.02;;
57395;SDS011;43222;52.912;6.940;2023-07-31T11:29:53;2.58;;;1.02;;
57395;SDS011;43222;52.912;6.940;2023-07-31T11:32:25;2.35;;;1.00;;
57395;SDS011;43222;52.912;6.940;2023-07-31T11:34:52;1.52;;;0.80;;
57395;SDS011;43222;52.912;6.940;2023-07-31T11:37:18;1.45;;;0.80;;
57395;SDS011;43222;52.912;6.940;2023-07-31T11:39:58;2.50;;;0.93;;
57395;SDS011;43222;52.912;6.940;2023-07-31T11:42:24;1.50;;;0.77;;
57395;SDS011;43222;52.912;6.940;2023-07-31T11:44:50;2.78;;;0.80;;
57395;SDS011;43222;52.912;6.940;2023-07-31T11:47:16;2.35;;;0.60;;
57395;SDS011;43222;52.912;6.940;2023-07-31T11:49:43;0.93;;;0.60;;
57395;SDS011;43222;52.912;6.940;2023-07-31T11:52:09;1.40;;;0.60;;
57395;SDS011;43222;52.912;6.940;2023-07-31T11:54:36;1.27;;;0.63;;
57395;SDS011;43222;52.912;6.940;2023-07-31T11:57:02;2.10;;;0.52;;
57395;SDS011;43222;52.912;6.940;2023-07-31T11:59:28;3.55;;;0.60;;
57395;SDS011;43222;52.912;6.940;2023-07-31T12:01:54;2.78;;;0.50;;
57395;SDS011;43222;52.912;6.940;2023-07-31T12:04:21;0.80;;;0.50;;
57395;SDS011;43222;52.912;6.940;2023-07-31T12:06:47;1.73;;;0.50;;
57395;SDS011;43222;52.912;6.940;2023-07-31T12:09:16;1.02;;;0.50;;
57395;SDS011;43222;52.912;6.940;2023-07-31T12:11:46;0.70;;;0.40;;
57395;SDS011;43222;52.912;6.940;2023-07-31T12:14:25;1.58;;;0.52;;
57395;SDS011;43222;52.912;6.940;2023-07-31T12:16:55;1.85;;;0.65;;
57395;SDS011;43222;52.912;6.940;2023-07-31T12:19:22;2.70;;;0.52;;
57395;SDS011;43222;52.912;6.940;2023-07-31T12:21:48;1.52;;;0.47;;
57395;SDS011;43222;52.912;6.940;2023-07-31T12:24:14;2.00;;;0.60;;
57395;SDS011;43222;52.912;6.940;2023-07-31T12:26:42;1.48;;;0.77;;
57395;SDS011;43222;52.912;6.940;2023-07-31T12:29:11;1.38;;;0.70;;
57395;SDS011;43222;52.912;6.940;2023-07-31T12:31:37;1.90;;;0.60;;
57395;SDS011;43222;52.912;6.940;2023-07-31T12:34:14;3.17;;;0.95;;
57395;SDS011;43222;52.912;6.940;2023-07-31T12:36:42;6.55;;;1.45;;
57395;SDS011;43222;52.912;6.940;2023-07-31T12:39:08;3.22;;;1.10;;
57395;SDS011;43222;52.912;6.940;2023-07-31T12:41:34;2.65;;;1.17;;
57395;SDS011;43222;52.912;6.940;2023-07-31T12:44:00;4.72;;;1.10;;
57395;SDS011;43222;52.912;6.940;2023-07-31T12:46:26;5.05;;;1.17;;
57395;SDS011;43222;52.912;6.940;2023-07-31T12:48:52;4.22;;;0.90;;
57395;SDS011;43222;52.912;6.940;2023-07-31T12:51:18;2.63;;;0.80;;
57395;SDS011;43222;52.912;6.940;2023-07-31T12:53:44;3.65;;;0.85;;
57395;SDS011;43222;52.912;6.940;2023-07-31T12:56:10;3.00;;;0.93;;
57395;SDS011;43222;52.912;6.940;2023-07-31T12:58:36;4.47;;;0.90;;
57395;SDS011;43222;52.912;6.940;2023-07-31T13:01:02;3.63;;;0.93;;
57395;SDS011;43222;52.912;6.940;2023-07-31T13:03:28;4.07;;;1.08;;
57395;SDS011;43222;52.912;6.940;2023-07-31T13:05:54;4.53;;;1.13;;
57395;SDS011;43222;52.912;6.940;2023-07-31T13:08:20;4.10;;;1.17;;
57395;SDS011;43222;52.912;6.940;2023-07-31T13:10:46;4.00;;;1.10;;
57395;SDS011;43222;52.912;6.940;2023-07-31T13:13:12;4.43;;;1.25;;
57395;SDS011;43222;52.912;6.940;2023-07-31T13:15:38;6.10;;;1.40;;
57395;SDS011;43222;52.912;6.940;2023-07-31T13:18:04;5.45;;;1.73;;
57395;SDS011;43222;52.912;6.940;2023-07-31T13:20:30;5.35;;;1.80;;
57395;SDS011;43222;52.912;6.940;2023-07-31T13:22:57;4.60;;;1.60;;
57395;SDS011;43222;52.912;6.940;2023-07-31T13:25:23;5.78;;;1.50;;
57395;SDS011;43222;52.912;6.940;2023-07-31T13:27:49;6.07;;;1.60;;
57395;SDS011;43222;52.912;6.940;2023-07-31T13:30:15;8.10;;;1.77;;
57395;SDS011;43222;52.912;6.940;2023-07-31T13:32:41;6.63;;;1.90;;
57395;SDS011;43222;52.912;6.940;2023-07-31T13:35:07;6.38;;;2.22;;
57395;SDS011;43222;52.912;6.940;2023-07-31T13:37:34;11.65;;;1.77;;
57395;SDS011;43222;52.912;6.940;2023-07-31T13:40:00;6.30;;;2.30;;
57395;SDS011;43222;52.912;6.940;2023-07-31T13:42:26;6.15;;;2.20;;
57395;SDS011;43222;52.912;6.940;2023-07-31T13:44:53;6.78;;;2.20;;
57395;SDS011;43222;52.912;6.940;2023-07-31T13:47:21;6.10;;;2.22;;
57395;SDS011;43222;52.912;6.940;2023-07-31T13:49:47;7.68;;;2.33;;
57395;SDS011;43222;52.912;6.940;2023-07-31T13:52:13;8.88;;;2.17;;
57395;SDS011;43222;52.912;6.940;2023-07-31T13:54:39;8.10;;;2.22;;
57395;SDS011;43222;52.912;6.940;2023-07-31T13:57:05;5.43;;;2.00;;
57395;SDS011;43222;52.912;6.940;2023-07-31T13:59:31;8.52;;;2.60;;
57395;SDS011;43222;52.912;6.940;2023-07-31T14:01:57;6.70;;;2.35;;
57395;SDS011;43222;52.912;6.940;2023-07-31T14:04:23;7.45;;;2.60;;
57395;SDS011;43222;52.912;6.940;2023-07-31T14:06:49;8.30;;;2.50;;
57395;SDS011;43222;52.912;6.940;2023-07-31T14:09:15;7.38;;;2.75;;
57395;SDS011;43222;52.912;6.940;2023-07-31T14:11:42;11.40;;;3.00;;
57395;SDS011;43222;52.912;6.940;2023-07-31T14:14:09;6.57;;;2.70;;
57395;SDS011;43222;52.912;6.940;2023-07-31T14:16:35;6.68;;;2.80;;
57395;SDS011;43222;52.912;6.940;2023-07-31T14:19:01;10.57;;;2.90;;
57395;SDS011;43222;52.912;6.940;2023-07-31T14:21:27;8.40;;;3.08;;
57395;SDS011;43222;52.912;6.940;2023-07-31T14:23:53;8.48;;;2.90;;
57395;SDS011;43222;52.912;6.940;2023-07-31T14:26:19;9.63;;;2.95;;
57395;SDS011;43222;52.912;6.940;2023-07-31T14:28:45;8.45;;;2.40;;
57395;SDS011;43222;52.912;6.940;2023-07-31T14:31:11;9.63;;;2.80;;
57395;SDS011;43222;52.912;6.940;2023-07-31T14:33:37;6.70;;;2.10;;
57395;SDS011;43222;52.912;6.940;2023-07-31T14:36:03;8.52;;;2.45;;
57395;SDS011;43222;52.912;6.940;2023-07-31T14:38:30;7.30;;;2.15;;
57395;SDS011;43222;52.912;6.940;2023-07-31T14:40:56;7.45;;;2.30;;
57395;SDS011;43222;52.912;6.940;2023-07-31T14:43:22;7.72;;;2.63;;
57395;SDS011;43222;52.912;6.940;2023-07-31T14:45:48;7.25;;;2.33;;
57395;SDS011;43222;52.912;6.940;2023-07-31T14:48:14;6.43;;;2.03;;
57395;SDS011;43222;52.912;6.940;2023-07-31T14:50:40;6.70;;;2.17;;
57395;SDS011;43222;52.912;6.940;2023-07-31T14:53:06;6.88;;;2.67;;
57395;SDS011;43222;52.912;6.940;2023-07-31T14:55:32;6.82;;;2.30;;